sensor_id;sensor_type;location;lat;lon;timestamp;pressure;altitude;pressure_sealevel;temperature;humidity
62980;BME280;49075;53.988;27.678;2023-04-06T18:21:02;988.4;;;10;59.9
62980;BME280;49075;53.988;27.678;2023-04-06T18:26:02;988.4;;;9.9;59.9
62980;BME280;49075;53.988;27.678;2023-04-06T18:31:14;988.4;;;9.8;59.9
62980;BME280;49075;53.988;27.678;2023-04-06T18:36:40;988.4;;;9.7;59.7
62980;BME280;49075;53.988;27.678;2023-04-06T18:41:02;988.4;;;9.7;59.4
62980;BME280;49075;53.988;27.678;2023-04-06T18:46:16;988.5;;;9.7;59.1
62980;BME280;49075;53.988;27.678;2023-04-06T18:51:02;988.5;;;9.8;58.8
62980;BME280;49075;53.988;27.678;2023-04-06T18:56:20;988.5;;;9.9;58
62980;BME280;49075;53.988;27.678;2023-04-06T19:01:26;988.5;;;9.9;57.6
62980;BME280;49075;53.988;27.678;2023-04-06T19:06:14;988.5;;;10;57.6
62980;BME280;49075;53.988;27.678;2023-04-06T19:11:12;988.5;;;9.9;57.5
62980;BME280;49075;53.988;27.678;2023-04-06T19:16:28;988.6;;;9.9;57.5
62980;BME280;49075;53.988;27.678;2023-04-06T19:21:14;988.6;;;9.8;57.5
62980;BME280;49075;53.988;27.678;2023-04-06T19:26:14;988.6;;;9.8;57.7
62980;BME280;49075;53.988;27.678;2023-04-06T19:31:15;988.6;;;9.7;57.8
62980;BME280;49075;53.988;27.678;2023-04-06T19:36:34;988.6;;;9.6;58.1
62980;BME280;49075;53.988;27.678;2023-04-06T19:41:02;988.6;;;9.6;58.2
62980;BME280;49075;53.988;27.678;2023-04-06T19:46:14;988.6;;;9.5;58.4
62980;BME280;49075;53.988;27.678;2023-04-06T19:51:12;988.6;;;9.5;58.7
62980;BME280;49075;53.988;27.678;2023-04-06T19:56:14;988.6;;;9.4;59
62980;BME280;49075;53.988;27.678;2023-04-06T20:01:18;988.6;;;9.3;59.2
62980;BME280;49075;53.988;27.678;2023-04-06T20:06:02;988.6;;;9.3;59.4
62980;BME280;49075;53.988;27.678;2023-04-06T20:11:42;988.6;;;9.1;59.8
62980;BME280;49075;53.988;27.678;2023-04-06T20:16:28;988.6;;;9;59.7
62980;BME280;49075;53.988;27.678;2023-04-06T20:21:02;988.5;;;8.8;60.1
62980;BME280;49075;53.988;27.678;2023-04-06T20:26:08;988.6;;;8.8;60
62980;BME280;49075;53.988;27.678;2023-04-06T20:31:16;988.6;;;8.6;60.3
62980;BME280;49075;53.988;27.678;2023-04-06T20:36:14;988.6;;;8.6;60.2
62980;BME280;49075;53.988;27.678;2023-04-06T20:41:02;988.6;;;8.5;60.5
62980;BME280;49075;53.988;27.678;2023-04-06T20:46:02;988.6;;;8.4;60.6
62980;BME280;49075;53.988;27.678;2023-04-06T20:51:20;988.6;;;8.4;60.6
62980;BME280;49075;53.988;27.678;2023-04-06T20:56:02;988.6;;;8.3;60.8
62980;BME280;49075;53.988;27.678;2023-04-06T21:01:20;988.6;;;8.2;60.8
62980;BME280;49075;53.988;27.678;2023-04-06T21:06:02;988.6;;;8.1;61
62980;BME280;49075;53.988;27.678;2023-04-06T21:11:02;988.6;;;8;61.3
62980;BME280;49075;53.988;27.678;2023-04-06T21:16:02;988.6;;;7.9;61.5
62980;BME280;49075;53.988;27.678;2023-04-06T21:21:28;988.6;;;7.9;61.3
62980;BME280;49075;53.988;27.678;2023-04-06T21:26:10;988.6;;;7.8;61.4
62980;BME280;49075;53.988;27.678;2023-04-06T21:31:14;988.5;;;7.7;61.6
62980;BME280;49075;53.988;27.678;2023-04-06T21:36:32;988.6;;;7.6;61.8
62980;BME280;49075;53.988;27.678;2023-04-06T21:41:02;988.6;;;7.5;61.9
62980;BME280;49075;53.988;27.678;2023-04-06T21:46:02;988.5;;;7.4;62
62980;BME280;49075;53.988;27.678;2023-04-06T21:51:02;988.5;;;7.4;62.2
62980;BME280;49075;53.988;27.678;2023-04-06T21:56:12;988.5;;;7.2;62.5
62980;BME280;49075;53.988;27.678;2023-04-06T22:01:02;988.5;;;7.2;62.4
62980;BME280;49075;53.988;27.678;2023-04-06T22:06:08;988.5;;;7.2;62.4
62980;BME280;49075;53.988;27.678;2023-04-06T22:11:16;988.5;;;7.1;62.5
62980;BME280;49075;53.988;27.678;2023-04-06T22:16:02;988.5;;;7;62.7
62980;BME280;49075;53.988;27.678;2023-04-06T22:21:02;988.5;;;6.9;63.1
62980;BME280;49075;53.988;27.678;2023-04-06T22:26:02;988.5;;;6.9;63.1
62980;BME280;49075;53.988;27.678;2023-04-06T22:31:02;988.4;;;6.9;62.9
62980;BME280;49075;53.988;27.678;2023-04-06T22:36:02;988.4;;;6.8;63.1
62980;BME280;49075;53.988;27.678;2023-04-06T22:41:08;988.4;;;6.7;63.3
62980;BME280;49075;53.988;27.678;2023-04-06T22:46:16;988.4;;;6.7;63.2
62980;BME280;49075;53.988;27.678;2023-04-06T22:51:14;988.4;;;6.6;63.5
62980;BME280;49075;53.988;27.678;2023-04-06T22:56:14;988.4;;;6.5;63.7
62980;BME280;49075;53.988;27.678;2023-04-06T23:01:28;988.4;;;6.6;63.6
62980;BME280;49075;53.988;27.678;2023-04-06T23:06:08;988.4;;;6.5;64
62980;BME280;49075;53.988;27.678;2023-04-06T23:11:28;988.4;;;6.5;63.6
62980;BME280;49075;53.988;27.678;2023-04-06T23:16:20;988.4;;;6.4;63.9
62980;BME280;49075;53.988;27.678;2023-04-06T23:21:08;988.3;;;6.4;63.9
62980;BME280;49075;53.988;27.678;2023-04-06T23:26:28;988.3;;;6.4;64
62980;BME280;49075;53.988;27.678;2023-04-06T23:31:20;988.3;;;6.3;64.2
62980;BME280;49075;53.988;27.678;2023-04-06T23:36:26;988.2;;;6.3;64.1
62980;BME280;49075;53.988;27.678;2023-04-06T23:41:02;988.2;;;6.3;64.2
62980;BME280;49075;53.988;27.678;2023-04-06T23:46:08;988.2;;;6.3;64.4
62980;BME280;49075;53.988;27.678;2023-04-06T23:51:28;988.2;;;6.3;64.3
62980;BME280;49075;53.988;27.678;2023-04-06T23:56:08;988.1;;;6.3;64.3
